createdAt,value
2023-02-05T00:02:14.997Z,100.00
2023-02-05T00:04:42.404Z,100.00
2023-02-05T00:07:09.651Z,100.00
2023-02-05T00:09:37.017Z,100.00
2023-02-05T00:12:04.614Z,100.00
2023-02-05T00:14:31.794Z,100.00
2023-02-05T00:16:59.160Z,100.00
2023-02-05T00:19:26.497Z,100.00
2023-02-05T00:21:53.714Z,100.00
2023-02-05T00:24:20.956Z,100.00
2023-02-05T00:26:48.146Z,100.00
2023-02-05T00:29:15.523Z,100.00
2023-02-05T00:31:43.050Z,100.00
2023-02-05T00:34:13.391Z,100.00
2023-02-05T00:36:40.609Z,100.00
2023-02-05T00:39:11.477Z,100.00
2023-02-05T00:41:41.728Z,100.00
2023-02-05T00:44:09.024Z,100.00
2023-02-05T00:46:36.227Z,100.00
2023-02-05T00:49:04.004Z,100.00
2023-02-05T00:51:31.277Z,100.00
2023-02-05T00:53:59.466Z,100.00
2023-02-05T00:56:26.591Z,100.00
2023-02-05T00:58:54.517Z,100.00
2023-02-05T01:01:21.755Z,100.00
2023-02-05T01:03:49.193Z,100.00
2023-02-05T01:06:16.530Z,100.00
2023-02-05T01:08:43.927Z,100.00
2023-02-05T01:11:11.529Z,100.00
2023-02-05T01:13:39.623Z,100.00
2023-02-05T01:16:07.574Z,100.00
2023-02-05T01:18:34.939Z,100.00
2023-02-05T01:21:02.653Z,100.00
2023-02-05T01:23:29.905Z,100.00
2023-02-05T01:25:57.198Z,100.00
2023-02-05T01:28:24.480Z,100.00
2023-02-05T01:30:52.257Z,100.00
2023-02-05T01:33:19.792Z,100.00
2023-02-05T01:35:47.046Z,100.00
2023-02-05T01:38:15.222Z,100.00
2023-02-05T01:40:43.085Z,100.00
2023-02-05T01:43:16.896Z,100.00
2023-02-05T01:45:51.099Z,100.00
2023-02-05T01:48:26.759Z,100.00
2023-02-05T01:51:08.769Z,100.00
2023-02-05T01:53:38.055Z,100.00
2023-02-05T01:56:35.815Z,100.00
2023-02-05T01:59:21.591Z,100.00
2023-02-05T02:01:48.975Z,100.00
2023-02-05T02:04:32.544Z,100.00
2023-02-05T02:07:02.957Z,100.00
2023-02-05T02:09:30.308Z,100.00
2023-02-05T02:11:59.245Z,100.00
2023-02-05T02:14:29.113Z,100.00
2023-02-05T02:16:57.471Z,100.00
2023-02-05T02:19:53.815Z,100.00
2023-02-05T02:22:54.647Z,100.00
2023-02-05T02:26:02.143Z,100.00
2023-02-05T02:28:38.788Z,100.00
2023-02-05T02:31:19.394Z,100.00
2023-02-05T02:34:14.088Z,100.00
2023-02-05T02:36:53.448Z,100.00
2023-02-05T02:40:03.507Z,100.00
2023-02-05T02:42:39.846Z,100.00
2023-02-05T02:45:10.155Z,100.00
2023-02-05T02:47:45.285Z,100.00
2023-02-05T02:50:24.138Z,100.00
2023-02-05T02:52:55.019Z,100.00
2023-02-05T02:55:24.711Z,100.00
2023-02-05T02:57:53.261Z,100.00
2023-02-05T03:00:25.265Z,100.00
2023-02-05T03:03:00.073Z,100.00
2023-02-05T03:05:29.884Z,100.00
2023-02-05T03:08:05.235Z,100.00
2023-02-05T03:10:46.484Z,100.00
2023-02-05T03:13:15.139Z,100.00
2023-02-05T03:15:48.537Z,100.00
2023-02-05T03:18:18.405Z,100.00
2023-02-05T03:20:58.828Z,100.00
2023-02-05T03:23:28.408Z,100.00
2023-02-05T03:25:56.125Z,100.00
2023-02-05T03:28:31.948Z,100.00
2023-02-05T03:31:38.316Z,100.00
2023-02-05T03:34:45.100Z,100.00
2023-02-05T03:37:31.363Z,100.00
2023-02-05T03:40:37.973Z,100.00
2023-02-05T03:43:21.603Z,100.00
2023-02-05T03:46:21.458Z,100.00
2023-02-05T03:49:37.284Z,100.00
2023-02-05T03:52:17.601Z,100.00
2023-02-05T03:55:11.030Z,100.00
2023-02-05T03:58:00.944Z,100.00
2023-02-05T04:00:29.263Z,100.00
2023-02-05T04:02:57.073Z,100.00
2023-02-05T04:05:29.083Z,100.00
2023-02-05T04:07:57.760Z,100.00
2023-02-05T04:10:30.933Z,100.00
2023-02-05T04:13:00.855Z,100.00
2023-02-05T04:15:29.084Z,100.00
2023-02-05T04:17:58.908Z,100.00
2023-02-05T04:20:28.239Z,100.00
2023-02-05T04:22:55.546Z,100.00
2023-02-05T04:25:23.833Z,100.00
2023-02-05T04:27:53.803Z,100.00
2023-02-05T04:30:21.238Z,100.00
2023-02-05T04:32:49.273Z,100.00
2023-02-05T04:35:18.144Z,100.00
2023-02-05T04:37:47.623Z,100.00
2023-02-05T04:40:15.952Z,100.00
2023-02-05T04:42:43.406Z,100.00
2023-02-05T04:45:11.290Z,100.00
2023-02-05T04:47:39.021Z,100.00
2023-02-05T04:50:06.746Z,100.00
2023-02-05T04:52:34.569Z,100.00
2023-02-05T04:55:01.956Z,100.00
2023-02-05T04:57:31.496Z,100.00
2023-02-05T04:59:58.727Z,100.00
2023-02-05T05:02:26.184Z,100.00
2023-02-05T05:04:53.516Z,100.00
2023-02-05T05:07:20.872Z,100.00
2023-02-05T05:09:48.060Z,100.00
2023-02-05T05:12:15.249Z,100.00
2023-02-05T05:14:42.522Z,100.00
2023-02-05T05:17:09.806Z,100.00
2023-02-05T05:19:36.968Z,100.00
2023-02-05T05:22:04.262Z,100.00
2023-02-05T05:24:31.836Z,100.00
2023-02-05T05:27:00.230Z,100.00
2023-02-05T05:29:27.605Z,100.00
2023-02-05T05:31:54.930Z,100.00
2023-02-05T05:34:22.443Z,100.00
2023-02-05T05:36:49.869Z,100.00
2023-02-05T05:39:35.859Z,100.00
2023-02-05T05:42:22.522Z,100.00
2023-02-05T05:44:52.200Z,100.00
2023-02-05T05:47:20.355Z,100.00
2023-02-05T05:49:48.126Z,100.00
2023-02-05T05:52:15.701Z,100.00
2023-02-05T05:54:45.197Z,100.00
2023-02-05T05:57:12.643Z,100.00
2023-02-05T05:59:39.992Z,100.00
2023-02-05T06:02:07.231Z,100.00
2023-02-05T06:04:34.656Z,100.00
2023-02-05T06:07:02.792Z,100.00
2023-02-05T06:09:30.124Z,100.00
2023-02-05T06:11:57.392Z,100.00
2023-02-05T06:14:24.590Z,100.00
2023-02-05T06:16:52.354Z,100.00
2023-02-05T06:19:19.586Z,100.00
2023-02-05T06:21:46.941Z,100.00
2023-02-05T06:24:14.153Z,100.00
2023-02-05T06:26:41.438Z,100.00
2023-02-05T06:29:08.762Z,100.00
2023-02-05T06:31:36.221Z,100.00
2023-02-05T06:34:03.563Z,100.00
2023-02-05T06:36:30.934Z,100.00
2023-02-05T06:38:58.143Z,100.00
2023-02-05T06:41:27.880Z,100.00
2023-02-05T06:43:55.190Z,100.00
2023-02-05T06:46:22.437Z,100.00
2023-02-05T06:48:52.734Z,100.00
2023-02-05T06:51:20.124Z,100.00
2023-02-05T06:53:47.339Z,100.00
2023-02-05T06:56:14.626Z,100.00
2023-02-05T06:58:41.736Z,100.00
2023-02-05T07:01:08.952Z,100.00
2023-02-05T07:03:36.240Z,100.00
2023-02-05T07:06:07.816Z,100.00
2023-02-05T07:08:35.664Z,100.00
2023-02-05T07:11:03.610Z,100.00
2023-02-05T07:13:56.565Z,100.00
2023-02-05T07:16:23.975Z,100.00
2023-02-05T07:18:53.108Z,100.00
2023-02-05T07:21:20.562Z,100.00
2023-02-05T07:23:47.800Z,100.00
2023-02-05T07:26:17.821Z,100.00
2023-02-05T07:28:45.605Z,100.00
2023-02-05T07:31:17.339Z,100.00
2023-02-05T07:33:46.646Z,100.00
2023-02-05T07:36:17.979Z,100.00
2023-02-05T07:38:47.483Z,100.00
2023-02-05T07:41:17.228Z,100.00
2023-02-05T07:43:44.909Z,100.00
2023-02-05T07:46:15.113Z,100.00
2023-02-05T07:48:42.631Z,100.00
2023-02-05T07:51:24.269Z,100.00
2023-02-05T07:53:52.328Z,100.00
2023-02-05T07:56:21.840Z,100.00
2023-02-05T07:58:49.476Z,100.00
2023-02-05T08:01:16.848Z,100.00
2023-02-05T08:03:44.216Z,100.00
2023-02-05T08:06:15.882Z,100.00
2023-02-05T08:08:43.765Z,100.00
2023-02-05T08:11:16.342Z,100.00
2023-02-05T08:13:45.122Z,97.05
2023-02-05T08:16:15.800Z,97.98
2023-02-05T08:18:46.916Z,100.00
2023-02-05T08:21:14.289Z,100.00
2023-02-05T08:23:41.601Z,100.00
2023-02-05T08:26:09.091Z,97.10
2023-02-05T08:28:36.455Z,84.66
2023-02-05T08:31:11.793Z,85.82
2023-02-05T08:33:39.347Z,84.78
2023-02-05T08:36:10.029Z,84.58
2023-02-05T08:38:39.997Z,86.52
2023-02-05T08:41:13.574Z,87.24
2023-02-05T08:43:49.725Z,87.41
2023-02-05T08:46:21.846Z,88.85
2023-02-05T08:48:49.970Z,91.85
2023-02-05T08:51:19.654Z,92.57
2023-02-05T08:53:47.007Z,82.27
2023-02-05T08:56:15.698Z,81.61
2023-02-05T08:58:43.288Z,83.97
2023-02-05T09:01:15.453Z,88.23
2023-02-05T09:03:42.939Z,88.63
2023-02-05T09:06:14.443Z,88.96
2023-02-05T09:08:42.895Z,82.65
2023-02-05T09:11:10.852Z,73.33
2023-02-05T09:13:38.612Z,75.48
2023-02-05T09:16:06.137Z,76.05
2023-02-05T09:18:33.662Z,75.02
2023-02-05T09:21:00.931Z,78.00
2023-02-05T09:23:28.436Z,80.66
2023-02-05T09:25:58.276Z,81.96
2023-02-05T09:28:25.962Z,77.48
2023-02-05T09:30:53.456Z,66.94
2023-02-05T09:33:20.941Z,55.48
2023-02-05T09:35:48.269Z,53.60
2023-02-05T09:38:18.259Z,56.51
2023-02-05T09:41:03.292Z,58.81
2023-02-05T09:44:25.436Z,64.28
2023-02-05T09:47:20.214Z,59.12
2023-02-05T09:50:04.763Z,52.99
2023-02-05T09:55:51.058Z,57.63
2023-02-05T09:58:24.957Z,63.78
2023-02-05T10:01:11.490Z,67.14
2023-02-05T10:03:57.189Z,68.21
2023-02-05T10:07:03.968Z,69.13
2023-02-05T10:09:52.324Z,70.44
2023-02-05T10:12:40.498Z,71.37
2023-02-05T10:15:16.046Z,72.18
2023-02-05T10:17:55.668Z,71.28
2023-02-05T10:21:06.145Z,71.24
2023-02-05T10:24:01.814Z,71.38
2023-02-05T10:27:01.024Z,72.97
2023-02-05T10:30:18.284Z,74.85
2023-02-05T10:33:19.603Z,74.64
2023-02-05T10:36:06.836Z,74.55
2023-02-05T10:38:46.238Z,73.47
2023-02-05T10:41:58.707Z,73.23
2023-02-05T10:44:42.514Z,71.59
2023-02-05T10:48:01.612Z,62.34
2023-02-05T10:50:58.608Z,61.14
2023-02-05T10:53:28.799Z,61.28
2023-02-05T10:55:59.632Z,64.02
2023-02-05T10:58:35.584Z,63.93
2023-02-05T11:01:05.520Z,66.81
2023-02-05T11:03:34.704Z,66.53
2023-02-05T11:06:09.102Z,65.74
2023-02-05T11:08:44.852Z,68.45
2023-02-05T11:11:31.396Z,69.22
2023-02-05T11:14:07.423Z,69.02
2023-02-05T11:16:46.672Z,69.46
2023-02-05T11:19:24.186Z,69.06
2023-02-05T11:21:58.689Z,69.95
2023-02-05T11:24:39.521Z,71.16
2023-02-05T11:27:15.439Z,70.99
2023-02-05T11:29:43.764Z,71.09
2023-02-05T11:32:36.624Z,71.52
2023-02-05T11:35:32.378Z,72.72
2023-02-05T11:38:21.689Z,73.33
2023-02-05T11:40:53.981Z,70.63
2023-02-05T11:43:49.830Z,73.20
2023-02-05T11:46:21.449Z,73.67
2023-02-05T11:48:58.116Z,74.07
2023-02-05T11:51:47.302Z,71.77
2023-02-05T11:54:33.437Z,71.44
2023-02-05T11:57:38.924Z,72.78
2023-02-05T12:00:09.125Z,71.83
2023-02-05T12:02:39.240Z,70.54
2023-02-05T12:05:19.859Z,69.86
2023-02-05T12:07:55.942Z,67.95
2023-02-05T12:11:11.746Z,68.24
2023-02-05T12:14:02.374Z,67.37
2023-02-05T12:16:49.786Z,66.73
2023-02-05T12:19:51.812Z,64.69
2023-02-05T12:22:49.803Z,64.97
2023-02-05T12:25:30.264Z,63.66
2023-02-05T12:28:03.721Z,63.33
2023-02-05T12:31:04.345Z,63.78
2023-02-05T12:33:57.457Z,63.22
2023-02-05T12:37:05.392Z,64.36
2023-02-05T12:39:50.360Z,63.41
2023-02-05T12:42:40.401Z,62.97
2023-02-05T12:45:38.359Z,62.62
2023-02-05T12:48:18.119Z,62.93
2023-02-05T12:51:30.153Z,65.09
2023-02-05T12:54:30.244Z,64.72
2023-02-05T12:57:07.382Z,63.77
2023-02-05T12:59:46.424Z,66.21
2023-02-05T13:02:19.579Z,65.40
2023-02-05T13:04:59.170Z,66.46
2023-02-05T13:07:40.966Z,69.06
2023-02-05T13:10:38.270Z,70.18
2023-02-05T13:13:18.472Z,72.38
2023-02-05T13:15:56.898Z,73.40
2023-02-05T13:18:29.620Z,74.89
2023-02-05T13:21:24.583Z,74.80
2023-02-05T13:24:33.158Z,74.97
2023-02-05T13:27:19.786Z,74.11
2023-02-05T13:29:51.785Z,77.22
2023-02-05T13:32:25.337Z,76.84
2023-02-05T13:34:55.599Z,77.32
2023-02-05T13:38:40.080Z,76.68
2023-02-05T13:41:56.164Z,78.07
2023-02-05T13:45:19.590Z,78.53
2023-02-05T13:48:52.085Z,75.76
2023-02-05T13:51:39.994Z,76.33
2023-02-05T13:54:38.573Z,75.42
2023-02-05T13:57:47.766Z,75.13
2023-02-05T14:00:15.992Z,74.39
2023-02-05T14:02:54.328Z,74.99
2023-02-05T14:05:42.942Z,73.90
2023-02-05T14:08:27.311Z,73.85
2023-02-05T14:11:04.636Z,74.00
2023-02-05T14:13:34.637Z,73.29
2023-02-05T14:16:26.235Z,73.54
2023-02-05T14:19:02.302Z,74.75
2023-02-05T14:21:32.660Z,72.26
2023-02-05T14:24:22.382Z,74.33
2023-02-05T14:27:00.715Z,75.75
2023-02-05T14:29:51.448Z,74.29
2023-02-05T14:32:30.629Z,76.03
2023-02-05T14:35:28.448Z,75.97
2023-02-05T14:38:15.108Z,78.03
2023-02-05T14:40:42.700Z,77.63
2023-02-05T14:43:27.471Z,80.33
2023-02-05T14:45:55.637Z,81.22
2023-02-05T14:48:30.857Z,81.31
2023-02-05T14:51:07.100Z,81.20
2023-02-05T14:53:38.126Z,81.28
2023-02-05T14:56:06.649Z,80.40
2023-02-05T14:58:38.599Z,81.82
2023-02-05T15:01:37.706Z,82.82
2023-02-05T15:04:05.757Z,80.06
2023-02-05T15:06:41.603Z,81.66
2023-02-05T15:09:26.246Z,82.99
2023-02-05T15:12:47.661Z,82.95
2023-02-05T15:15:45.965Z,83.05
2023-02-05T15:18:32.925Z,84.08
2023-02-05T15:21:01.314Z,83.63
2023-02-05T15:23:52.703Z,85.05
2023-02-05T15:26:34.049Z,85.65
2023-02-05T15:29:29.463Z,84.89
2023-02-05T15:32:07.423Z,87.01
2023-02-05T15:34:48.490Z,85.45
2023-02-05T15:37:43.978Z,86.03
2023-02-05T15:40:29.322Z,87.00
2023-02-05T15:43:29.365Z,86.45
2023-02-05T15:46:09.696Z,87.47
2023-02-05T15:48:40.960Z,87.94
2023-02-05T15:51:28.839Z,89.26
2023-02-05T15:53:59.246Z,89.48
2023-02-05T15:56:38.070Z,91.49
2023-02-05T15:59:19.289Z,91.79
2023-02-05T16:02:18.686Z,94.22
2023-02-05T16:05:12.362Z,96.41
2023-02-05T16:07:55.535Z,95.58
2023-02-05T16:10:34.932Z,95.73
2023-02-05T16:13:06.498Z,96.29
2023-02-05T16:15:54.942Z,96.26
2023-02-05T16:18:51.076Z,93.26
2023-02-05T16:21:30.397Z,90.32
2023-02-05T16:24:36.687Z,92.79
2023-02-05T16:27:27.405Z,93.75
2023-02-05T16:29:59.770Z,93.43
2023-02-05T16:32:37.368Z,93.72
2023-02-05T16:35:08.556Z,92.96
2023-02-05T16:37:37.091Z,92.10
2023-02-05T16:40:06.901Z,91.80
2023-02-05T16:42:43.442Z,91.15
2023-02-05T16:45:26.000Z,91.13
2023-02-05T16:48:29.234Z,91.67
2023-02-05T16:50:57.940Z,90.83
2023-02-05T16:53:29.404Z,91.98
2023-02-05T16:56:26.222Z,92.33
2023-02-05T16:58:58.560Z,93.35
2023-02-05T17:01:39.169Z,93.27
2023-02-05T17:04:07.606Z,92.48
2023-02-05T17:06:37.553Z,92.44
2023-02-05T17:09:05.914Z,92.59
2023-02-05T17:11:38.293Z,92.14
2023-02-05T17:14:32.922Z,90.37
2023-02-05T17:17:03.725Z,92.97
2023-02-05T17:19:33.355Z,92.88
2023-02-05T17:22:15.823Z,91.92
2023-02-05T17:24:49.443Z,91.63
2023-02-05T17:27:38.683Z,93.00
2023-02-05T17:30:16.245Z,94.30
2023-02-05T17:32:44.599Z,93.85
2023-02-05T17:35:18.640Z,92.81
2023-02-05T17:37:45.997Z,94.52
2023-02-05T17:40:14.066Z,96.25
2023-02-05T17:42:41.952Z,97.01
2023-02-05T17:45:32.875Z,99.49
2023-02-05T17:48:02.840Z,97.21
2023-02-05T17:50:30.396Z,96.16
2023-02-05T17:52:58.361Z,98.10
2023-02-05T17:55:28.079Z,98.29
2023-02-05T17:57:57.944Z,98.62
2023-02-05T18:00:28.499Z,100.00
2023-02-05T18:02:55.768Z,100.00
2023-02-05T18:05:23.800Z,100.00
2023-02-05T18:07:58.519Z,100.00
2023-02-05T18:10:32.297Z,99.26
2023-02-05T18:12:59.969Z,99.54
2023-02-05T18:15:28.321Z,100.00
2023-02-05T18:17:55.733Z,100.00
2023-02-05T18:20:30.423Z,100.00
2023-02-05T18:22:57.903Z,100.00
2023-02-05T18:25:25.379Z,100.00
2023-02-05T18:27:53.054Z,100.00
2023-02-05T18:30:20.589Z,100.00
2023-02-05T18:32:48.060Z,100.00
2023-02-05T18:35:15.525Z,100.00
2023-02-05T18:37:44.292Z,100.00
2023-02-05T18:40:13.651Z,100.00
2023-02-05T18:42:42.134Z,100.00
2023-02-05T18:45:10.079Z,100.00
2023-02-05T18:47:37.389Z,100.00
2023-02-05T18:50:05.654Z,100.00
2023-02-05T18:52:33.154Z,100.00
2023-02-05T18:55:00.402Z,100.00
2023-02-05T18:57:27.740Z,100.00
2023-02-05T18:59:55.017Z,100.00
2023-02-05T19:02:22.336Z,100.00
2023-02-05T19:04:55.710Z,100.00
2023-02-05T19:07:26.111Z,100.00
2023-02-05T19:09:53.651Z,100.00
2023-02-05T19:12:23.109Z,100.00
2023-02-05T19:14:50.523Z,100.00
2023-02-05T19:17:21.353Z,100.00
2023-02-05T19:19:51.986Z,100.00
2023-02-05T19:22:19.098Z,100.00
2023-02-05T19:24:46.635Z,100.00
2023-02-05T19:27:14.557Z,100.00
2023-02-05T19:29:41.973Z,100.00
2023-02-05T19:32:09.462Z,100.00
2023-02-05T19:34:43.382Z,100.00
2023-02-05T19:37:12.239Z,100.00
2023-02-05T19:39:39.814Z,100.00
2023-02-05T19:42:07.623Z,100.00
2023-02-05T19:44:34.967Z,100.00
2023-02-05T19:47:05.467Z,100.00
2023-02-05T19:49:32.847Z,100.00
2023-02-05T19:52:01.426Z,100.00
2023-02-05T19:54:29.758Z,100.00
2023-02-05T19:56:57.478Z,100.00
2023-02-05T19:59:27.696Z,100.00
2023-02-05T20:01:58.064Z,100.00
2023-02-05T20:04:28.808Z,100.00
2023-02-05T20:06:59.591Z,100.00
2023-02-05T20:09:28.391Z,100.00
2023-02-05T20:11:55.942Z,100.00
2023-02-05T20:14:24.262Z,100.00
2023-02-05T20:16:52.318Z,100.00
2023-02-05T20:19:20.546Z,100.00
2023-02-05T20:21:48.721Z,100.00
2023-02-05T20:24:16.522Z,100.00
2023-02-05T20:26:47.883Z,100.00
2023-02-05T20:29:34.039Z,100.00
2023-02-05T20:32:02.283Z,100.00
2023-02-05T20:34:35.910Z,100.00
2023-02-05T20:37:07.448Z,100.00
2023-02-05T20:39:38.689Z,100.00
2023-02-05T20:42:06.164Z,100.00
2023-02-05T20:44:36.245Z,100.00
2023-02-05T20:47:10.858Z,100.00
2023-02-05T20:49:40.947Z,100.00
2023-02-05T20:52:10.175Z,100.00
2023-02-05T20:54:37.626Z,100.00
2023-02-05T20:57:05.172Z,100.00
2023-02-05T20:59:34.484Z,100.00
2023-02-05T21:02:02.863Z,100.00
2023-02-05T21:04:30.850Z,100.00
2023-02-05T21:06:58.542Z,100.00
2023-02-05T21:09:25.822Z,100.00
2023-02-05T21:11:55.639Z,100.00
2023-02-05T21:14:23.544Z,100.00
2023-02-05T21:16:51.109Z,100.00
2023-02-05T21:19:18.555Z,100.00
2023-02-05T21:21:46.258Z,100.00
2023-02-05T21:24:16.343Z,100.00
2023-02-05T21:26:49.058Z,100.00
2023-02-05T21:29:20.313Z,100.00
2023-02-05T21:31:55.907Z,100.00
2023-02-05T21:34:26.774Z,100.00
2023-02-05T21:36:55.137Z,100.00
2023-02-05T21:39:23.305Z,100.00
2023-02-05T21:41:51.038Z,100.00
2023-02-05T21:44:20.953Z,100.00
2023-02-05T21:46:48.263Z,100.00
2023-02-05T21:49:15.728Z,100.00
2023-02-05T21:51:43.274Z,100.00
2023-02-05T21:54:11.997Z,100.00
2023-02-05T21:56:42.401Z,100.00
2023-02-05T21:59:12.525Z,100.00
2023-02-05T22:01:41.322Z,100.00
2023-02-05T22:04:15.181Z,100.00
2023-02-05T22:06:42.991Z,100.00
2023-02-05T22:09:13.792Z,100.00
2023-02-05T22:11:41.536Z,100.00
2023-02-05T22:14:10.424Z,100.00
2023-02-05T22:16:38.395Z,100.00
2023-02-05T22:19:06.521Z,100.00
2023-02-05T22:21:38.066Z,100.00
2023-02-05T22:24:06.662Z,100.00
2023-02-05T22:26:37.681Z,100.00
2023-02-05T22:29:08.580Z,100.00
2023-02-05T22:31:36.443Z,100.00
2023-02-05T22:34:04.705Z,100.00
2023-02-05T22:36:34.380Z,100.00
2023-02-05T22:39:06.122Z,100.00
2023-02-05T22:41:40.196Z,100.00
2023-02-05T22:44:09.407Z,100.00
2023-02-05T22:46:51.358Z,100.00
2023-02-05T22:49:25.848Z,100.00
2023-02-05T22:51:53.360Z,100.00
2023-02-05T22:54:22.974Z,100.00
2023-02-05T22:56:50.288Z,100.00
2023-02-05T22:59:17.546Z,100.00
2023-02-05T23:01:44.855Z,100.00
2023-02-05T23:04:12.294Z,100.00
2023-02-05T23:06:42.823Z,100.00
2023-02-05T23:09:13.734Z,100.00
2023-02-05T23:11:41.650Z,100.00
2023-02-05T23:14:10.453Z,100.00
2023-02-05T23:16:41.808Z,100.00
2023-02-05T23:19:14.361Z,100.00
2023-02-05T23:21:41.653Z,100.00
2023-02-05T23:24:09.164Z,100.00
2023-02-05T23:26:44.285Z,100.00
2023-02-05T23:29:18.582Z,100.00
2023-02-05T23:31:46.498Z,100.00
2023-02-05T23:34:13.875Z,100.00
2023-02-05T23:36:41.320Z,100.00
2023-02-05T23:39:08.624Z,100.00
2023-02-05T23:41:36.410Z,100.00
2023-02-05T23:44:20.747Z,100.00
2023-02-05T23:46:49.830Z,100.00
2023-02-05T23:49:23.232Z,100.00
2023-02-05T23:51:52.963Z,100.00
2023-02-05T23:54:21.433Z,100.00
2023-02-05T23:56:49.030Z,100.00
2023-02-05T23:59:19.208Z,100.00
